Time;durP1;ratioP1;P1;durP2;ratioP2;P2;SDS_P1;SDS_P2;PMS_P1;PMS_P2;Temp;Humidity;BMP_temperature;BMP_pressure;BME280_temperature;BME280_humidity;BME280_pressure;Samples;Min_cycle;Max_cycle;Signal;HPM_P1;HPM_P2
2023/12/09 00:01:42;;;;;;;59.53;26.83;;;;;;;;;;7366834;19;20023;-75
2023/12/09 00:04:07;;;;;;;65.53;27.20;;;;;;;;;;7365240;19;20006;-75
2023/12/09 00:06:33;;;;;;;60.30;26.20;;;;;;;;;;7387718;19;20034;-75
2023/12/09 00:08:58;;;;;;;58.58;26.52;;;;;;;;;;7367840;19;20603;-75
2023/12/09 00:11:23;;;;;;;63.35;27.35;;;;;;;;;;7375571;19;20024;-75
2023/12/09 00:13:48;;;;;;;72.10;27.67;;;;;;;;;;7367969;19;20023;-75
2023/12/09 00:16:14;;;;;;;64.70;29.20;;;;;;;;;;7364372;19;20049;-75
2023/12/09 00:18:40;;;;;;;72.85;28.25;;;;;;;;;;7388191;19;20464;-75
2023/12/09 00:21:05;;;;;;;82.97;29.05;;;;;;;;;;7366237;19;20025;-75
2023/12/09 00:23:30;;;;;;;77.82;31.13;;;;;;;;;;7364776;19;20103;-74
2023/12/09 00:25:56;;;;;;;72.80;29.30;;;;;;;;;;7365076;19;20090;-75
2023/12/09 00:28:21;;;;;;;77.55;30.35;;;;;;;;;;7365814;19;20011;-75
2023/12/09 00:30:46;;;;;;;80.75;30.05;;;;;;;;;;7366018;19;20015;-74
2023/12/09 00:33:12;;;;;;;90.00;31.75;;;;;;;;;;7387004;19;20547;-74
2023/12/09 00:35:37;;;;;;;81.88;31.30;;;;;;;;;;7365032;19;20393;-74
2023/12/09 00:38:02;;;;;;;93.60;31.45;;;;;;;;;;7364166;19;20062;-74
2023/12/09 00:40:28;;;;;;;84.93;31.63;;;;;;;;;;7364585;19;20011;-74
2023/12/09 00:42:53;;;;;;;87.32;31.75;;;;;;;;;;7364614;19;20007;-74
2023/12/09 00:45:18;;;;;;;94.88;33.60;;;;;;;;;;7385478;19;20484;-74
2023/12/09 00:47:43;;;;;;;91.97;33.22;;;;;;;;;;7363897;19;20078;-74
2023/12/09 00:50:09;;;;;;;86.28;30.80;;;;;;;;;;7365067;19;20081;-74
2023/12/09 00:52:35;;;;;;;85.50;32.50;;;;;;;;;;7363804;19;20013;-74
2023/12/09 00:55:00;;;;;;;92.55;33.95;;;;;;;;;;7364912;19;20011;-73
2023/12/09 00:57:26;;;;;;;97.43;34.17;;;;;;;;;;7386024;19;20094;-74
2023/12/09 00:59:51;;;;;;;82.35;30.95;;;;;;;;;;7362747;19;20014;-74
2023/12/09 01:02:17;;;;;;;95.68;33.35;;;;;;;;;;7361544;19;20003;-74
2023/12/09 01:04:43;;;;;;;80.30;32.03;;;;;;;;;;7363958;19;20018;-74
2023/12/09 01:07:08;;;;;;;72.55;30.55;;;;;;;;;;7362560;19;20017;-74
2023/12/09 01:09:33;;;;;;;82.70;30.88;;;;;;;;;;7387168;19;20080;-75
2023/12/09 01:11:59;;;;;;;78.75;31.17;;;;;;;;;;7363951;19;20024;-75
2023/12/09 01:14:25;;;;;;;82.50;30.30;;;;;;;;;;7363506;19;20009;-74
2023/12/09 01:16:50;;;;;;;102.72;33.45;;;;;;;;;;7363075;19;20118;-74
2023/12/09 01:19:15;;;;;;;93.32;33.00;;;;;;;;;;7364962;19;20022;-74
2023/12/09 01:21:41;;;;;;;83.63;31.70;;;;;;;;;;7386770;19;20003;-74
2023/12/09 01:24:06;;;;;;;89.65;32.67;;;;;;;;;;7364603;19;20006;-74
2023/12/09 01:26:31;;;;;;;75.88;31.48;;;;;;;;;;7369568;19;20571;-74
2023/12/09 01:28:59;;;;;;;83.43;31.65;;;;;;;;;;7368368;19;20013;-74
2023/12/09 01:31:24;;;;;;;82.65;32.00;;;;;;;;;;7365002;19;20016;-74
2023/12/09 01:33:50;;;;;;;83.18;30.75;;;;;;;;;;7362335;19;20456;-74
2023/12/09 01:36:15;;;;;;;70.28;30.13;;;;;;;;;;7385407;19;20003;-75
2023/12/09 01:38:40;;;;;;;79.97;32.22;;;;;;;;;;7373538;19;20491;-74
2023/12/09 01:41:06;;;;;;;75.43;30.75;;;;;;;;;;7373425;19;19998;-74
2023/12/09 01:43:31;;;;;;;75.40;30.98;;;;;;;;;;7377716;19;20007;-75
2023/12/09 01:46:07;;;;;;;81.47;31.42;;;;;;;;;;7379039;19;19998;-75
2023/12/09 01:48:33;;;;;;;75.05;30.65;;;;;;;;;;7398929;19;20003;-75
2023/12/09 01:51:00;;;;;;;77.35;29.88;;;;;;;;;;7370962;19;20003;-74
2023/12/09 01:53:26;;;;;;;70.10;29.50;;;;;;;;;;7369127;19;20010;-75
2023/12/09 01:55:52;;;;;;;79.15;30.70;;;;;;;;;;7369747;19;20006;-74
2023/12/09 01:58:19;;;;;;;75.43;30.25;;;;;;;;;;7370516;19;20079;-74
2023/12/09 02:00:44;;;;;;;76.82;30.98;;;;;;;;;;7381880;19;19998;-74
2023/12/09 02:03:09;;;;;;;80.75;31.27;;;;;;;;;;7383665;19;20602;-74
2023/12/09 02:05:35;;;;;;;75.90;31.23;;;;;;;;;;7368873;19;20014;-74
2023/12/09 02:08:00;;;;;;;86.15;31.90;;;;;;;;;;7368921;19;20003;-74
2023/12/09 02:10:27;;;;;;;80.03;29.83;;;;;;;;;;7371171;19;20029;-74
2023/12/09 02:13:04;;;;;;;76.45;30.38;;;;;;;;;;7370308;19;20522;-74
2023/12/09 02:15:37;;;;;;;80.05;30.40;;;;;;;;;;7391162;19;20491;-74
2023/12/09 02:18:04;;;;;;;82.60;31.42;;;;;;;;;;7369485;19;20007;-74
2023/12/09 02:20:30;;;;;;;73.85;30.55;;;;;;;;;;7368548;19;20563;-74
2023/12/09 02:23:09;;;;;;;70.47;31.00;;;;;;;;;;7367251;19;20019;-74
2023/12/09 02:25:35;;;;;;;78.30;29.15;;;;;;;;;;7369020;19;20007;-74
2023/12/09 02:28:17;;;;;;;71.68;29.33;;;;;;;;;;7369402;19;20579;-74
2023/12/09 02:30:57;;;;;;;74.50;29.23;;;;;;;;;;7392035;19;20023;-74
2023/12/09 02:33:23;;;;;;;69.43;29.02;;;;;;;;;;7369974;19;20074;-74
2023/12/09 02:35:50;;;;;;;66.53;29.67;;;;;;;;;;7372656;19;20011;-74
2023/12/09 02:38:17;;;;;;;76.15;29.70;;;;;;;;;;7372808;19;20008;-74
2023/12/09 02:40:45;;;;;;;65.03;29.10;;;;;;;;;;7372565;19;20030;-74
2023/12/09 02:43:11;;;;;;;75.03;29.90;;;;;;;;;;7373149;19;20003;-74
2023/12/09 02:45:37;;;;;;;67.53;28.63;;;;;;;;;;7393379;19;19994;-74
2023/12/09 02:48:03;;;;;;;74.75;30.05;;;;;;;;;;7368967;19;19999;-74
2023/12/09 02:50:29;;;;;;;72.82;30.48;;;;;;;;;;7368818;19;20006;-74
2023/12/09 02:52:54;;;;;;;74.72;29.20;;;;;;;;;;7371887;19;20073;-74
2023/12/09 02:55:19;;;;;;;68.97;28.50;;;;;;;;;;7372876;19;20413;-74
2023/12/09 02:57:45;;;;;;;69.95;27.50;;;;;;;;;;7378846;19;20386;-74
2023/12/09 03:00:11;;;;;;;74.00;29.08;;;;;;;;;;7395160;19;19998;-74
2023/12/09 03:02:36;;;;;;;67.22;28.10;;;;;;;;;;7372490;19;20018;-74
2023/12/09 03:05:01;;;;;;;70.82;29.75;;;;;;;;;;7372028;19;20566;-74
2023/12/09 03:07:27;;;;;;;71.57;27.98;;;;;;;;;;7369671;19;20036;-74
2023/12/09 03:09:52;;;;;;;73.22;29.98;;;;;;;;;;7375340;19;19995;-74
2023/12/09 03:12:17;;;;;;;78.55;30.27;;;;;;;;;;7395909;19;19995;-74
2023/12/09 03:14:43;;;;;;;71.85;29.42;;;;;;;;;;7369738;19;20036;-74
2023/12/09 03:17:11;;;;;;;71.20;30.95;;;;;;;;;;7367230;19;20009;-74
2023/12/09 03:19:36;;;;;;;70.03;29.65;;;;;;;;;;7368555;19;20010;-75
2023/12/09 03:22:03;;;;;;;68.15;29.33;;;;;;;;;;7371289;19;20009;-74
2023/12/09 03:24:28;;;;;;;74.40;30.20;;;;;;;;;;7390000;19;20298;-74
2023/12/09 03:26:54;;;;;;;78.45;31.40;;;;;;;;;;7367988;19;20011;-75
2023/12/09 03:29:20;;;;;;;81.28;30.00;;;;;;;;;;7367327;19;20073;-74
2023/12/09 03:31:45;;;;;;;72.65;28.83;;;;;;;;;;7368317;19;20019;-75
2023/12/09 03:34:12;;;;;;;68.72;28.35;;;;;;;;;;7365747;19;20014;-75
2023/12/09 03:36:38;;;;;;;76.10;30.10;;;;;;;;;;7389673;19;20014;-75
2023/12/09 03:39:03;;;;;;;74.72;29.48;;;;;;;;;;7366119;19;20518;-75
2023/12/09 03:41:29;;;;;;;75.30;29.05;;;;;;;;;;7367063;19;20220;-75
2023/12/09 03:43:55;;;;;;;72.97;30.35;;;;;;;;;;7367323;19;20017;-75
2023/12/09 03:46:21;;;;;;;74.05;30.70;;;;;;;;;;7365401;19;20067;-75
2023/12/09 03:48:46;;;;;;;73.60;29.58;;;;;;;;;;7367579;19;20596;-74
2023/12/09 03:51:11;;;;;;;73.40;29.45;;;;;;;;;;7388764;19;20473;-74
2023/12/09 03:53:36;;;;;;;83.00;31.70;;;;;;;;;;7364034;19;20035;-74
2023/12/09 03:56:03;;;;;;;84.90;31.25;;;;;;;;;;7365271;19;20014;-74
2023/12/09 03:58:31;;;;;;;84.30;31.17;;;;;;;;;;7365273;19;20027;-75
2023/12/09 04:00:56;;;;;;;79.18;29.67;;;;;;;;;;7366261;19;20010;-75
2023/12/09 04:03:22;;;;;;;75.78;30.40;;;;;;;;;;7387987;19;20011;-75
2023/12/09 04:05:47;;;;;;;71.78;30.27;;;;;;;;;;7366214;19;20019;-75
2023/12/09 04:08:12;;;;;;;75.65;28.52;;;;;;;;;;7366629;19;20514;-74
2023/12/09 04:10:38;;;;;;;76.93;28.90;;;;;;;;;;7366496;19;20566;-74
2023/12/09 04:13:03;;;;;;;69.88;27.92;;;;;;;;;;7366706;19;20016;-75
2023/12/09 04:15:29;;;;;;;72.10;29.45;;;;;;;;;;7386648;19;20011;-74
2023/12/09 04:17:54;;;;;;;81.38;30.48;;;;;;;;;;7372214;19;20015;-74
2023/12/09 04:20:19;;;;;;;80.43;29.70;;;;;;;;;;7373943;19;20479;-74
2023/12/09 04:22:45;;;;;;;73.78;28.70;;;;;;;;;;7371498;19;20010;-74
2023/12/09 04:25:10;;;;;;;71.72;29.55;;;;;;;;;;7367647;19;20010;-74
2023/12/09 04:27:36;;;;;;;62.63;28.73;;;;;;;;;;7387142;19;19998;-74
2023/12/09 04:30:03;;;;;;;70.13;28.55;;;;;;;;;;7366399;19;20002;-74
2023/12/09 04:32:31;;;;;;;75.10;28.88;;;;;;;;;;7365632;19;20002;-74
2023/12/09 04:34:58;;;;;;;77.80;30.00;;;;;;;;;;7365418;19;20024;-74
2023/12/09 04:37:23;;;;;;;82.25;30.77;;;;;;;;;;7364890;19;20159;-74
2023/12/09 04:39:49;;;;;;;81.57;29.98;;;;;;;;;;7366632;19;20078;-74
2023/12/09 04:42:15;;;;;;;81.63;30.55;;;;;;;;;;7389216;19;19990;-74
2023/12/09 04:44:40;;;;;;;73.15;30.10;;;;;;;;;;7368490;19;20010;-74
2023/12/09 04:47:06;;;;;;;84.43;31.38;;;;;;;;;;7370163;19;20003;-74
2023/12/09 04:49:32;;;;;;;79.32;30.20;;;;;;;;;;7370550;19;20007;-74
2023/12/09 04:51:57;;;;;;;71.50;30.15;;;;;;;;;;7370141;19;20496;-74
2023/12/09 04:54:22;;;;;;;84.45;30.92;;;;;;;;;;7388514;19;20124;-75
2023/12/09 04:56:47;;;;;;;74.97;28.95;;;;;;;;;;7370035;19;19999;-75
2023/12/09 04:59:13;;;;;;;73.10;29.08;;;;;;;;;;7376540;19;20030;-74
2023/12/09 05:01:39;;;;;;;66.88;28.05;;;;;;;;;;7373092;19;20078;-75
2023/12/09 05:04:04;;;;;;;67.85;29.90;;;;;;;;;;7371360;19;20473;-75
2023/12/09 05:06:29;;;;;;;64.75;29.10;;;;;;;;;;7389770;19;20017;-75
2023/12/09 05:08:55;;;;;;;69.18;29.92;;;;;;;;;;7364349;19;20025;-75
2023/12/09 05:11:20;;;;;;;70.95;31.27;;;;;;;;;;7364365;19;20038;-75
2023/12/09 05:13:45;;;;;;;70.80;30.27;;;;;;;;;;7371316;19;20006;-75
2023/12/09 05:16:11;;;;;;;70.82;30.00;;;;;;;;;;7371551;19;20507;-75
2023/12/09 05:18:36;;;;;;;70.30;30.73;;;;;;;;;;7393184;19;20021;-75
2023/12/09 05:21:01;;;;;;;67.18;30.63;;;;;;;;;;7370757;19;20495;-75
2023/12/09 05:23:27;;;;;;;81.78;30.15;;;;;;;;;;7369308;19;20410;-74
2023/12/09 05:25:52;;;;;;;66.43;29.85;;;;;;;;;;7370725;19;20018;-74
2023/12/09 05:28:18;;;;;;;66.88;27.50;;;;;;;;;;7371735;19;20010;-75
2023/12/09 05:30:43;;;;;;;64.30;27.65;;;;;;;;;;7393433;19;20006;-74
2023/12/09 05:33:08;;;;;;;65.40;28.25;;;;;;;;;;7369718;19;20018;-75
2023/12/09 05:35:35;;;;;;;71.75;28.20;;;;;;;;;;7369756;19;20010;-75
2023/12/09 05:38:00;;;;;;;63.40;27.30;;;;;;;;;;7370737;19;20009;-75
2023/12/09 05:40:26;;;;;;;69.28;27.42;;;;;;;;;;7369612;19;20032;-75
2023/12/09 05:42:51;;;;;;;68.10;27.48;;;;;;;;;;7370586;19;20341;-75
2023/12/09 05:45:16;;;;;;;65.30;27.60;;;;;;;;;;7392515;19;20019;-75
2023/12/09 05:47:42;;;;;;;75.07;26.60;;;;;;;;;;7369286;19;20363;-75
2023/12/09 05:50:08;;;;;;;65.93;27.50;;;;;;;;;;7371018;19;20070;-75
2023/12/09 05:52:34;;;;;;;64.18;27.25;;;;;;;;;;7369402;19;20538;-75
2023/12/09 05:54:59;;;;;;;70.28;27.67;;;;;;;;;;7371230;19;20007;-75
2023/12/09 05:57:25;;;;;;;70.85;28.00;;;;;;;;;;7391933;19;20002;-76
2023/12/09 05:59:50;;;;;;;66.90;27.38;;;;;;;;;;7364376;19;20003;-75
2023/12/09 06:02:15;;;;;;;62.30;27.55;;;;;;;;;;7370529;19;20121;-75
2023/12/09 06:04:40;;;;;;;64.53;26.83;;;;;;;;;;7370505;19;20074;-75
2023/12/09 06:07:06;;;;;;;75.38;27.92;;;;;;;;;;7368168;19;20017;-75
2023/12/09 06:09:31;;;;;;;74.10;27.95;;;;;;;;;;7392501;19;19999;-75
2023/12/09 06:11:56;;;;;;;65.50;26.88;;;;;;;;;;7370681;19;20520;-75
2023/12/09 06:14:22;;;;;;;68.50;27.77;;;;;;;;;;7369721;19;20006;-75
2023/12/09 06:16:47;;;;;;;67.25;27.20;;;;;;;;;;7369210;19;19998;-75
2023/12/09 06:19:13;;;;;;;62.70;26.70;;;;;;;;;;7370392;19;20019;-75
2023/12/09 06:21:38;;;;;;;70.90;27.98;;;;;;;;;;7392080;19;20007;-75
2023/12/09 06:24:04;;;;;;;69.55;27.88;;;;;;;;;;7366587;19;20013;-75
2023/12/09 06:26:29;;;;;;;76.82;28.15;;;;;;;;;;7368490;19;20010;-75
2023/12/09 06:28:54;;;;;;;69.75;28.00;;;;;;;;;;7375897;19;20062;-75
2023/12/09 06:31:20;;;;;;;78.05;29.95;;;;;;;;;;7376023;19;20040;-75
2023/12/09 06:33:45;;;;;;;76.35;29.65;;;;;;;;;;7373418;19;20006;-75
2023/12/09 06:36:10;;;;;;;86.35;29.92;;;;;;;;;;7389951;19;20035;-75
2023/12/09 06:38:40;;;;;;;72.07;29.33;;;;;;;;;;7368295;19;20006;-75
2023/12/09 06:41:06;;;;;;;74.53;28.33;;;;;;;;;;7368374;19;20010;-75
2023/12/09 06:43:31;;;;;;;72.70;28.90;;;;;;;;;;7368784;19;20354;-75
2023/12/09 06:45:59;;;;;;;78.25;29.75;;;;;;;;;;7367497;19;20021;-75
2023/12/09 06:48:24;;;;;;;69.38;28.70;;;;;;;;;;7391139;19;20014;-76
2023/12/09 06:50:49;;;;;;;79.72;29.33;;;;;;;;;;7371478;19;20010;-75
2023/12/09 06:53:15;;;;;;;69.38;28.48;;;;;;;;;;7370411;19;20015;-75
2023/12/09 06:55:40;;;;;;;82.43;30.65;;;;;;;;;;7370178;19;20194;-76
2023/12/09 06:58:06;;;;;;;84.30;30.15;;;;;;;;;;7371498;19;20424;-74
2023/12/09 07:00:31;;;;;;;80.45;30.38;;;;;;;;;;7388033;19;20608;-74
2023/12/09 07:02:56;;;;;;;80.20;31.33;;;;;;;;;;7366339;19;20014;-74
2023/12/09 07:05:22;;;;;;;78.45;30.20;;;;;;;;;;7367414;19;20110;-75
2023/12/09 07:07:50;;;;;;;70.70;28.85;;;;;;;;;;7367670;19;20006;-75
2023/12/09 07:10:16;;;;;;;78.88;31.67;;;;;;;;;;7368214;19;20354;-75
2023/12/09 07:12:43;;;;;;;89.72;33.53;;;;;;;;;;7389462;19;20029;-76
2023/12/09 07:15:08;;;;;;;90.00;35.28;;;;;;;;;;7368387;19;20350;-75
2023/12/09 07:17:33;;;;;;;82.47;34.00;;;;;;;;;;7365747;19;20045;-75
2023/12/09 07:19:59;;;;;;;85.57;33.22;;;;;;;;;;7367265;19;20111;-75
2023/12/09 07:22:25;;;;;;;87.03;33.03;;;;;;;;;;7366805;19;20011;-75
2023/12/09 07:24:50;;;;;;;94.50;33.80;;;;;;;;;;7368185;19;20010;-74
2023/12/09 07:27:16;;;;;;;86.40;32.65;;;;;;;;;;7388980;19;20511;-74
2023/12/09 07:29:41;;;;;;;82.43;31.27;;;;;;;;;;7368731;19;20010;-74
2023/12/09 07:32:06;;;;;;;104.15;34.67;;;;;;;;;;7368482;19;20480;-74
2023/12/09 07:34:32;;;;;;;92.03;33.53;;;;;;;;;;7365968;19;20007;-75
2023/12/09 07:36:57;;;;;;;100.80;35.53;;;;;;;;;;7366944;19;20010;-74
2023/12/09 07:39:23;;;;;;;97.78;32.65;;;;;;;;;;7388965;19;20002;-73
2023/12/09 07:41:50;;;;;;;110.05;37.13;;;;;;;;;;7367197;19;20025;-74
2023/12/09 07:44:17;;;;;;;106.10;36.42;;;;;;;;;;7366251;19;20010;-74
2023/12/09 07:46:42;;;;;;;101.63;35.13;;;;;;;;;;7369042;19;20483;-74
2023/12/09 07:49:07;;;;;;;107.57;34.97;;;;;;;;;;7368425;19;20067;-74
2023/12/09 07:51:33;;;;;;;109.55;36.13;;;;;;;;;;7390468;19;20086;-75
2023/12/09 07:53:58;;;;;;;102.78;35.92;;;;;;;;;;7368335;19;20074;-75
2023/12/09 07:56:23;;;;;;;87.93;32.63;;;;;;;;;;7373021;19;20517;-75
2023/12/09 07:58:48;;;;;;;100.20;34.22;;;;;;;;;;7375595;19;20007;-75
2023/12/09 08:01:14;;;;;;;101.57;36.38;;;;;;;;;;7371470;19;20029;-75
2023/12/09 08:03:39;;;;;;;97.40;33.60;;;;;;;;;;7390756;19;20543;-74
2023/12/09 08:06:06;;;;;;;95.15;33.55;;;;;;;;;;7368047;19;20340;-75
2023/12/09 08:08:31;;;;;;;95.20;33.67;;;;;;;;;;7370878;19;20520;-75
2023/12/09 08:10:58;;;;;;;100.93;34.20;;;;;;;;;;7367658;19;20003;-75
2023/12/09 08:13:24;;;;;;;86.00;33.13;;;;;;;;;;7366823;19;20002;-74
2023/12/09 08:15:49;;;;;;;96.93;33.72;;;;;;;;;;7366390;19;20066;-74
2023/12/09 08:18:16;;;;;;;75.47;31.08;;;;;;;;;;7389162;19;20003;-74
2023/12/09 08:20:41;;;;;;;92.35;32.70;;;;;;;;;;7365467;19;20002;-75
2023/12/09 08:23:07;;;;;;;94.80;32.90;;;;;;;;;;7365792;19;20020;-74
2023/12/09 08:25:32;;;;;;;86.90;32.33;;;;;;;;;;7365992;19;20012;-74
2023/12/09 08:27:57;;;;;;;80.72;30.92;;;;;;;;;;7365994;19;20021;-74
2023/12/09 08:30:23;;;;;;;86.22;32.40;;;;;;;;;;7387278;19;20006;-74
2023/12/09 08:32:48;;;;;;;79.25;31.45;;;;;;;;;;7363818;19;20029;-73
2023/12/09 08:35:13;;;;;;;85.18;32.35;;;;;;;;;;7365883;19;20022;-75
2023/12/09 08:37:40;;;;;;;91.47;33.35;;;;;;;;;;7364417;19;20094;-73
2023/12/09 08:40:10;;;;;;;79.10;31.25;;;;;;;;;;7365861;19;20018;-74
2023/12/09 08:42:39;;;;;;;77.03;31.65;;;;;;;;;;7387556;19;20021;-74
2023/12/09 08:45:06;;;;;;;96.43;32.08;;;;;;;;;;7365588;19;19998;-73
2023/12/09 08:47:32;;;;;;;80.47;29.20;;;;;;;;;;7369184;19;20006;-75
2023/12/09 08:49:57;;;;;;;76.70;30.13;;;;;;;;;;7372272;19;20011;-74
2023/12/09 08:52:22;;;;;;;70.07;28.48;;;;;;;;;;7376453;19;20078;-74
2023/12/09 08:54:48;;;;;;;71.32;30.75;;;;;;;;;;7380076;19;20079;-74
2023/12/09 08:57:13;;;;;;;84.80;30.30;;;;;;;;;;7402366;19;20012;-76
2023/12/09 08:59:38;;;;;;;74.03;29.70;;;;;;;;;;7377853;19;20361;-74
2023/12/09 09:02:03;;;;;;;73.38;30.67;;;;;;;;;;7383330;19;20017;-74
2023/12/09 09:04:29;;;;;;;62.13;29.20;;;;;;;;;;7379342;19;20034;-73
2023/12/09 09:06:54;;;;;;;67.40;27.27;;;;;;;;;;7381087;19;20022;-76
2023/12/09 09:09:19;;;;;;;64.25;27.25;;;;;;;;;;7398814;19;20003;-74
2023/12/09 09:11:45;;;;;;;68.53;28.65;;;;;;;;;;7372157;19;20022;-73
2023/12/09 09:14:10;;;;;;;63.15;27.40;;;;;;;;;;7371698;19;20022;-74
2023/12/09 09:16:35;;;;;;;59.63;27.15;;;;;;;;;;7372183;19;20367;-74
2023/12/09 09:19:01;;;;;;;63.75;26.60;;;;;;;;;;7371721;19;20033;-74
2023/12/09 09:21:26;;;;;;;67.05;28.58;;;;;;;;;;7394079;19;20017;-74
2023/12/09 09:23:52;;;;;;;58.80;26.88;;;;;;;;;;7371508;19;20002;-74
2023/12/09 09:26:17;;;;;;;71.63;28.85;;;;;;;;;;7377411;19;20035;-76
2023/12/09 09:28:43;;;;;;;59.47;27.17;;;;;;;;;;7376126;19;20010;-74
2023/12/09 09:31:11;;;;;;;67.82;29.13;;;;;;;;;;7372907;19;20021;-73
2023/12/09 09:33:36;;;;;;;69.10;29.92;;;;;;;;;;7391704;19;20358;-74
2023/12/09 09:36:01;;;;;;;63.28;27.67;;;;;;;;;;7370924;19;20050;-75
2023/12/09 09:38:27;;;;;;;54.60;25.48;;;;;;;;;;7371336;19;20029;-73
2023/12/09 09:40:52;;;;;;;61.60;26.42;;;;;;;;;;7373722;19;20006;-74
2023/12/09 09:43:24;;;;;;;54.38;24.00;;;;;;;;;;7381754;19;20010;-75
2023/12/09 09:45:52;;;;;;;44.13;23.98;;;;;;;;;;7371672;19;20007;-74
2023/12/09 09:48:23;;;;;;;50.33;24.40;;;;;;;;;;7395880;19;20006;-76
2023/12/09 09:50:52;;;;;;;44.90;23.80;;;;;;;;;;7374439;19;20034;-74
2023/12/09 09:53:41;;;;;;;48.55;24.65;;;;;;;;;;7370564;19;20023;-76
2023/12/09 09:56:08;;;;;;;48.60;22.58;;;;;;;;;;7372148;19;20567;-75
2023/12/09 09:58:34;;;;;;;43.92;21.60;;;;;;;;;;7371773;19;20006;-74
2023/12/09 10:01:04;;;;;;;44.55;21.90;;;;;;;;;;7372622;19;20009;-74
2023/12/09 10:03:29;;;;;;;37.88;20.63;;;;;;;;;;7393482;19;20017;-75
2023/12/09 10:05:55;;;;;;;32.10;18.73;;;;;;;;;;7371115;19;20053;-75
2023/12/09 10:08:21;;;;;;;31.70;17.52;;;;;;;;;;7371989;19;20440;-75
2023/12/09 10:10:46;;;;;;;28.08;16.30;;;;;;;;;;7370300;19;20398;-75
2023/12/09 10:13:12;;;;;;;24.73;15.02;;;;;;;;;;7371723;19;20360;-75
2023/12/09 10:15:37;;;;;;;25.30;13.82;;;;;;;;;;7393818;19;20383;-75
2023/12/09 10:18:03;;;;;;;24.65;13.00;;;;;;;;;;7371726;19;20015;-74
2023/12/09 10:20:29;;;;;;;20.73;12.02;;;;;;;;;;7370461;19;20014;-74
2023/12/09 10:22:55;;;;;;;22.42;12.57;;;;;;;;;;7369755;19;20014;-73
2023/12/09 10:25:24;;;;;;;24.73;12.38;;;;;;;;;;7370647;19;20014;-74
2023/12/09 10:27:50;;;;;;;21.88;12.63;;;;;;;;;;7370818;19;20014;-73
2023/12/09 10:30:19;;;;;;;30.05;13.05;;;;;;;;;;7392338;19;19998;-74
2023/12/09 10:32:46;;;;;;;24.17;13.43;;;;;;;;;;7368439;19;20022;-74
2023/12/09 10:35:12;;;;;;;20.90;11.70;;;;;;;;;;7371344;19;20598;-74
2023/12/09 10:37:37;;;;;;;21.73;11.77;;;;;;;;;;7368385;19;20017;-74
2023/12/09 10:40:06;;;;;;;20.15;11.00;;;;;;;;;;7368912;19;20635;-74
2023/12/09 10:42:32;;;;;;;19.70;10.35;;;;;;;;;;7391143;19;20021;-75
2023/12/09 10:44:57;;;;;;;18.63;10.02;;;;;;;;;;7369598;19;20614;-74
2023/12/09 10:47:24;;;;;;;20.35;9.57;;;;;;;;;;7367505;19;20049;-73
2023/12/09 10:49:51;;;;;;;34.15;17.75;;;;;;;;;;7369462;19;20086;-74
2023/12/09 10:52:16;;;;;;;19.08;9.65;;;;;;;;;;7371896;19;20396;-74
2023/12/09 10:54:42;;;;;;;19.40;10.15;;;;;;;;;;7394739;19;20013;-74
2023/12/09 10:57:07;;;;;;;23.25;11.00;;;;;;;;;;7371648;19;20034;-73
2023/12/09 10:59:34;;;;;;;18.58;11.05;;;;;;;;;;7370684;19;20010;-74
2023/12/09 11:02:00;;;;;;;20.58;10.70;;;;;;;;;;7373534;19;20007;-74
2023/12/09 11:04:26;;;;;;;22.60;10.75;;;;;;;;;;7372170;19;20018;-73
2023/12/09 11:06:53;;;;;;;24.55;12.13;;;;;;;;;;7370465;19;20401;-73
2023/12/09 11:09:19;;;;;;;27.83;13.95;;;;;;;;;;7389559;19;20034;-74
2023/12/09 11:11:45;;;;;;;28.15;14.00;;;;;;;;;;7369857;19;20063;-73
2023/12/09 11:14:10;;;;;;;24.35;12.77;;;;;;;;;;7370726;19;20010;-74
2023/12/09 11:16:43;;;;;;;28.63;15.35;;;;;;;;;;7369153;19;20021;-75
2023/12/09 11:19:15;;;;;;;33.53;16.45;;;;;;;;;;7369936;19;20007;-73
2023/12/09 11:21:44;;;;;;;31.63;17.73;;;;;;;;;;7392154;19;20094;-74
2023/12/09 11:24:11;;;;;;;25.33;13.95;;;;;;;;;;7366828;19;20017;-74
2023/12/09 11:26:40;;;;;;;31.08;14.68;;;;;;;;;;7368739;19;20496;-74
2023/12/09 11:29:09;;;;;;;28.75;18.75;;;;;;;;;;7369744;19;20502;-74
2023/12/09 11:31:46;;;;;;;30.83;15.43;;;;;;;;;;7370494;19;20006;-74
2023/12/09 11:34:23;;;;;;;33.30;17.80;;;;;;;;;;7372848;19;20018;-74
2023/12/09 11:36:52;;;;;;;35.25;20.25;;;;;;;;;;7371366;19;20010;-75
2023/12/09 11:39:22;;;;;;;31.67;17.65;;;;;;;;;;7390167;19;20886;-74
2023/12/09 11:41:48;;;;;;;29.70;17.63;;;;;;;;;;7367886;19;20083;-75
2023/12/09 11:44:14;;;;;;;33.00;18.25;;;;;;;;;;7367102;19;20035;-74
2023/12/09 11:46:40;;;;;;;34.03;18.80;;;;;;;;;;7366937;19;20007;-74
2023/12/09 11:49:06;;;;;;;29.90;17.75;;;;;;;;;;7368953;19;20006;-73
2023/12/09 11:51:34;;;;;;;30.58;15.48;;;;;;;;;;7390076;19;20006;-74
2023/12/09 11:54:03;;;;;;;27.75;15.68;;;;;;;;;;7366849;19;20010;-74
2023/12/09 11:56:28;;;;;;;25.35;15.77;;;;;;;;;;7368724;19;20023;-76
2023/12/09 11:58:54;;;;;;;24.38;14.25;;;;;;;;;;7366287;19;20003;-73
2023/12/09 12:01:20;;;;;;;26.80;16.65;;;;;;;;;;7368411;19;20014;-74
2023/12/09 12:03:47;;;;;;;26.98;13.82;;;;;;;;;;7366214;19;20003;-75
2023/12/09 12:06:15;;;;;;;23.33;13.45;;;;;;;;;;7388549;19;20013;-73
2023/12/09 12:08:40;;;;;;;24.30;14.02;;;;;;;;;;7367173;19;20024;-73
2023/12/09 12:11:06;;;;;;;24.27;13.27;;;;;;;;;;7365663;19;20002;-74
2023/12/09 12:13:32;;;;;;;30.17;13.60;;;;;;;;;;7366611;19;20070;-74
2023/12/09 12:15:58;;;;;;;26.60;12.88;;;;;;;;;;7366477;19;20109;-75
2023/12/09 12:18:23;;;;;;;31.95;13.43;;;;;;;;;;7389409;19;20030;-74
2023/12/09 12:20:49;;;;;;;25.75;13.52;;;;;;;;;;7370833;19;20011;-73
2023/12/09 12:23:15;;;;;;;25.13;13.55;;;;;;;;;;7367066;19;20002;-73
2023/12/09 12:25:40;;;;;;;25.60;14.02;;;;;;;;;;7365362;19;20003;-72
2023/12/09 12:28:06;;;;;;;32.60;13.82;;;;;;;;;;7366073;19;20029;-73
2023/12/09 12:30:31;;;;;;;28.80;13.95;;;;;;;;;;7388053;19;20013;-74
2023/12/09 12:32:57;;;;;;;25.40;11.90;;;;;;;;;;7364410;19;20003;-74
2023/12/09 12:35:23;;;;;;;23.73;11.20;;;;;;;;;;7364608;19;20013;-73
2023/12/09 12:37:49;;;;;;;21.63;11.85;;;;;;;;;;7365223;19;20349;-73
2023/12/09 12:40:14;;;;;;;20.88;11.05;;;;;;;;;;7365028;19;20488;-73
2023/12/09 12:42:43;;;;;;;19.38;11.10;;;;;;;;;;7387688;19;20002;-74
2023/12/09 12:45:18;;;;;;;24.30;11.30;;;;;;;;;;7366290;19;20007;-74
2023/12/09 12:47:47;;;;;;;20.77;10.25;;;;;;;;;;7364702;19;20010;-74
2023/12/09 12:50:14;;;;;;;20.02;10.68;;;;;;;;;;7365722;19;20457;-74
2023/12/09 12:52:40;;;;;;;22.70;11.20;;;;;;;;;;7364839;19;20091;-73
2023/12/09 12:55:07;;;;;;;21.30;11.15;;;;;;;;;;7365215;19;20019;-73
2023/12/09 12:57:33;;;;;;;21.50;10.57;;;;;;;;;;7385655;19;20385;-75
2023/12/09 12:59:58;;;;;;;23.80;10.15;;;;;;;;;;7363703;19;20029;-74
2023/12/09 13:02:23;;;;;;;19.35;10.57;;;;;;;;;;7364662;19;20010;-74
2023/12/09 13:04:49;;;;;;;20.13;11.10;;;;;;;;;;7365407;19;20380;-75
2023/12/09 13:07:15;;;;;;;21.25;10.65;;;;;;;;;;7364603;19;20023;-73
2023/12/09 13:09:40;;;;;;;19.15;10.70;;;;;;;;;;7386931;19;19998;-75
2023/12/09 13:12:07;;;;;;;19.58;11.45;;;;;;;;;;7364493;19;20018;-74
2023/12/09 13:14:33;;;;;;;26.08;10.82;;;;;;;;;;7365095;19;20921;-74
2023/12/09 13:16:59;;;;;;;19.98;10.85;;;;;;;;;;7363909;19;20010;-73
2023/12/09 13:19:24;;;;;;;18.67;11.40;;;;;;;;;;7365460;19;20006;-74
2023/12/09 13:21:49;;;;;;;20.90;10.68;;;;;;;;;;7365842;19;20002;-75
2023/12/09 13:24:15;;;;;;;21.23;10.35;;;;;;;;;;7385566;19;20413;-73
2023/12/09 13:26:40;;;;;;;17.48;10.95;;;;;;;;;;7363793;19;20594;-74
2023/12/09 13:29:06;;;;;;;20.15;11.48;;;;;;;;;;7364903;19;20057;-74
2023/12/09 13:31:31;;;;;;;23.23;11.88;;;;;;;;;;7365579;19;20007;-75
2023/12/09 13:33:57;;;;;;;19.20;10.65;;;;;;;;;;7367507;19;20006;-73
2023/12/09 13:36:23;;;;;;;22.50;10.73;;;;;;;;;;7392045;19;20375;-73
2023/12/09 13:38:48;;;;;;;20.90;10.90;;;;;;;;;;7371811;19;20010;-75
2023/12/09 13:41:14;;;;;;;18.25;10.18;;;;;;;;;;7373810;19;20010;-74
2023/12/09 13:43:39;;;;;;;19.75;10.30;;;;;;;;;;7375448;19;20010;-75
2023/12/09 13:46:04;;;;;;;21.40;9.77;;;;;;;;;;7376705;19;19999;-74
2023/12/09 13:48:30;;;;;;;18.85;10.15;;;;;;;;;;7398864;19;20002;-74
2023/12/09 13:50:55;;;;;;;19.05;9.60;;;;;;;;;;7373291;19;20030;-73
2023/12/09 13:53:21;;;;;;;16.92;9.35;;;;;;;;;;7370148;19;20029;-75
2023/12/09 13:55:47;;;;;;;17.30;9.10;;;;;;;;;;7370247;19;20018;-73
2023/12/09 13:58:12;;;;;;;15.45;9.90;;;;;;;;;;7373219;19;20034;-74
2023/12/09 14:00:37;;;;;;;20.75;9.70;;;;;;;;;;7393176;19;19994;-73
2023/12/09 14:03:03;;;;;;;13.27;7.35;;;;;;;;;;7370047;19;20018;-73
2023/12/09 14:05:28;;;;;;;16.73;7.82;;;;;;;;;;7370627;19;20013;-74
2023/12/09 14:07:54;;;;;;;17.92;7.25;;;;;;;;;;7376204;19;20066;-74
2023/12/09 14:10:20;;;;;;;17.67;8.15;;;;;;;;;;7378308;19;20010;-74